Terminal Aerodrome Forecast
Issued by NWS

Home | Current Version | Previous Version | Text Only | Print | Product List | Glossary On
Versions: 1 2 3 4 5 6 7 8 9 10 11 12
000
FTUS46 KSEW 261726
TAFBLI
TAF
KBLI 261726Z 2618/2718 17014G19KT P6SM FEW020 SCT250
     FM262100 18008KT P6SM SCT250
     FM271000 18004KT P6SM SCT250=

USA.gov is the U.S. government's official web portal to all federal, state and local government web resources and services.